Time;durP1;ratioP1;P1;durP2;ratioP2;P2;SDS_P1;SDS_P2;PMS_P1;PMS_P2;Temp;Humidity;BMP_temperature;BMP_pressure;BME280_temperature;BME280_humidity;BME280_pressure;Samples;Min_cycle;Max_cycle;Signal;HPM_P1;HPM_P2
2023/09/05 00:00:04;;;;;;;7.95;4.80;;;;;;;14.17;100.00;101853.19;4955417;28;20055;-60
2023/09/05 00:02:31;;;;;;;5.85;4.50;;;;;;;13.97;100.00;101851.66;4955642;28;20071;-59
2023/09/05 00:04:57;;;;;;;9.85;4.43;;;;;;;13.99;100.00;101849.66;4954601;28;20055;-59
2023/09/05 00:07:24;;;;;;;5.82;4.03;;;;;;;13.89;100.00;101843.50;4954824;28;20102;-59
2023/09/05 00:09:51;;;;;;;7.00;4.43;;;;;;;14.01;100.00;101850.34;4955523;28;20091;-59
2023/09/05 00:12:17;;;;;;;13.27;5.82;;;;;;;13.86;100.00;101843.81;4954702;28;20043;-59
2023/09/05 00:14:44;;;;;;;8.98;4.20;;;;;;;13.82;100.00;101830.63;4971271;28;20129;-59
2023/09/05 00:17:10;;;;;;;8.05;4.18;;;;;;;13.87;100.00;101819.34;4962571;28;20047;-61
2023/09/05 00:19:37;;;;;;;10.48;4.03;;;;;;;13.78;100.00;101826.53;4953877;28;20168;-62
2023/09/05 00:22:05;;;;;;;7.75;3.80;;;;;;;13.58;100.00;101803.38;4954178;28;20083;-62
2023/09/05 00:24:37;;;;;;;7.55;4.07;;;;;;;13.41;100.00;101796.97;4954598;28;20115;-60
2023/09/05 00:27:09;;;;;;;8.90;4.20;;;;;;;13.39;100.00;101787.34;4955068;28;20418;-60
2023/09/05 00:29:36;;;;;;;9.98;4.35;;;;;;;13.41;100.00;101801.53;4954736;28;20062;-60
2023/09/05 00:32:03;;;;;;;6.10;4.03;;;;;;;13.45;100.00;101792.97;4954292;28;20055;-58
2023/09/05 00:34:34;;;;;;;5.78;3.67;;;;;;;13.44;100.00;101798.53;4954144;28;20134;-59
2023/09/05 00:37:03;;;;;;;9.45;4.00;;;;;;;13.53;100.00;101786.84;4954396;28;20098;-59
2023/09/05 00:39:31;;;;;;;5.70;3.88;;;;;;;13.38;100.00;101791.06;4954243;28;20423;-59
2023/09/05 00:41:57;;;;;;;6.97;3.80;;;;;;;13.34;100.00;101775.19;4954365;28;20488;-59
2023/09/05 00:44:25;;;;;;;7.93;3.97;;;;;;;13.27;100.00;101775.94;4955217;28;20047;-60
2023/09/05 00:46:52;;;;;;;8.13;3.90;;;;;;;13.16;100.00;101770.78;4954224;28;20102;-59
2023/09/05 00:49:22;;;;;;;8.38;4.93;;;;;;;13.18;100.00;101764.25;4952955;28;20070;-60
2023/09/05 00:51:50;;;;;;;10.20;4.10;;;;;;;13.11;100.00;101763.13;4954402;28;20067;-59
2023/09/05 00:54:17;;;;;;;8.18;3.58;;;;;;;13.11;100.00;101758.63;4954181;28;20046;-60
2023/09/05 00:56:45;;;;;;;5.32;3.55;;;;;;;12.98;100.00;101755.44;4954124;28;20051;-59
2023/09/05 00:59:12;;;;;;;6.45;3.45;;;;;;;12.91;100.00;101732.78;4954032;28;20048;-59
2023/09/05 01:01:38;;;;;;;5.35;3.75;;;;;;;12.80;100.00;101732.97;4954356;28;20074;-58
2023/09/05 01:04:05;;;;;;;5.93;4.00;;;;;;;12.75;100.00;101722.66;4954033;28;20054;-59
2023/09/05 01:07:22;;;;;;;7.85;3.85;;;;;;;12.69;100.00;101717.00;4953919;28;20048;-58
2023/09/05 01:10:14;;;;;;;6.60;3.85;;;;;;;12.53;100.00;101706.91;4953571;28;20555;-66
2023/09/05 01:12:41;;;;;;;4.97;3.78;;;;;;;12.45;100.00;101696.84;4953784;28;20055;-67
2023/09/05 01:15:08;;;;;;;8.32;4.03;;;;;;;12.47;100.00;101688.66;4953908;28;20118;-62
2023/09/05 01:17:35;;;;;;;5.18;3.63;;;;;;;12.44;100.00;101691.63;4953558;28;20052;-62
2023/09/05 01:20:04;;;;;;;6.72;3.70;;;;;;;12.31;100.00;101673.97;4953066;28;20071;-61
2023/09/05 01:22:36;;;;;;;9.98;3.80;;;;;;;12.39;100.00;101671.41;4952586;28;20047;-62
2023/09/05 01:25:04;;;;;;;10.20;3.72;;;;;;;12.28;100.00;101665.34;4953170;28;20051;-60
2023/09/05 01:27:30;;;;;;;5.93;4.07;;;;;;;12.22;100.00;101666.81;4957951;28;20078;-61
2023/09/05 01:29:57;;;;;;;6.32;3.95;;;;;;;12.17;100.00;101661.88;4972320;28;20514;-61
2023/09/05 01:32:25;;;;;;;5.07;3.72;;;;;;;12.23;100.00;101663.13;4973158;28;20046;-62
2023/09/05 01:34:51;;;;;;;8.07;4.10;;;;;;;12.24;100.00;101662.09;4972652;28;20093;-62
2023/09/05 01:37:18;;;;;;;6.25;4.22;;;;;;;12.25;100.00;101658.44;4972769;28;20109;-63
2023/09/05 01:39:44;;;;;;;14.00;3.97;;;;;;;12.20;100.00;101666.09;4973277;28;20069;-61
2023/09/05 01:42:11;;;;;;;10.40;3.88;;;;;;;12.20;100.00;101655.34;4972671;28;20046;-61
2023/09/05 01:44:38;;;;;;;6.70;3.85;;;;;;;12.31;100.00;101662.38;4971845;28;20402;-61
2023/09/05 01:47:06;;;;;;;6.43;3.58;;;;;;;12.21;100.00;101657.06;4971818;28;20047;-61
2023/09/05 01:49:32;;;;;;;5.78;4.10;;;;;;;12.23;100.00;101651.50;4972199;28;20050;-62
2023/09/05 01:51:59;;;;;;;12.75;3.75;;;;;;;12.15;100.00;101652.25;4972027;28;20051;-62
2023/09/05 01:54:26;;;;;;;7.55;3.55;;;;;;;11.99;100.00;101633.19;4972092;28;20115;-62
2023/09/05 01:56:52;;;;;;;8.35;4.03;;;;;;;11.86;100.00;101614.69;4971600;28;20131;-62
2023/09/05 01:59:20;;;;;;;7.03;3.60;;;;;;;11.92;100.00;101620.34;4971625;28;20097;-64
2023/09/05 02:01:48;;;;;;;12.80;4.45;;;;;;;11.81;100.00;101609.78;4971674;28;20415;-62
2023/09/05 02:04:15;;;;;;;7.32;4.30;;;;;;;11.77;100.00;101610.22;4971844;28;20058;-61
2023/09/05 02:06:42;;;;;;;9.05;3.97;;;;;;;11.72;100.00;101602.56;4972097;28;20053;-61
2023/09/05 02:09:08;;;;;;;6.93;3.80;;;;;;;11.71;100.00;101586.59;4971814;28;20063;-61
2023/09/05 02:11:37;;;;;;;5.47;3.58;;;;;;;11.65;100.00;101588.84;4971520;28;20046;-61
2023/09/05 02:14:05;;;;;;;7.57;4.03;;;;;;;11.51;100.00;101566.97;4970711;28;20043;-62
2023/09/05 02:16:33;;;;;;;7.18;4.15;;;;;;;11.42;100.00;101553.41;4971427;28;20110;-62
2023/09/05 02:19:00;;;;;;;7.40;4.25;;;;;;;11.44;100.00;101546.03;4971198;28;20047;-62
2023/09/05 02:21:26;;;;;;;6.57;4.10;;;;;;;11.43;100.00;101547.03;4971510;28;20043;-62
2023/09/05 02:23:53;;;;;;;11.48;4.25;;;;;;;11.44;100.00;101545.19;4971334;28;20135;-62
2023/09/05 02:26:20;;;;;;;9.00;4.35;;;;;;;11.41;100.00;101538.31;4971580;28;20051;-62
2023/09/05 02:28:46;;;;;;;7.40;4.00;;;;;;;11.45;100.00;101542.38;4971701;28;20458;-62
2023/09/05 02:31:13;;;;;;;7.22;4.28;;;;;;;11.35;100.00;101525.44;4972769;28;20042;-61
2023/09/05 02:33:40;;;;;;;7.93;4.60;;;;;;;11.32;100.00;101524.88;4970405;28;20081;-61
2023/09/05 02:36:06;;;;;;;6.43;4.43;;;;;;;11.28;100.00;101527.03;4971147;28;20766;-61
2023/09/05 02:38:34;;;;;;;9.48;4.85;;;;;;;11.05;100.00;101488.06;4970878;28;20054;-61
2023/09/05 02:41:00;;;;;;;9.05;4.72;;;;;;;10.97;100.00;101478.03;4970459;28;20105;-61
2023/09/05 02:43:27;;;;;;;9.18;4.65;;;;;;;10.99;100.00;101470.66;4970642;28;20046;-61
2023/09/05 02:45:54;;;;;;;8.18;4.40;;;;;;;10.92;100.00;101474.94;4970375;28;20051;-61
2023/09/05 02:48:21;;;;;;;9.73;4.82;;;;;;;10.87;100.00;101472.69;4970481;28;20047;-61
2023/09/05 02:50:48;;;;;;;7.55;4.60;;;;;;;10.88;100.00;101462.78;4970200;28;20051;-61
2023/09/05 02:53:14;;;;;;;8.18;4.40;;;;;;;10.98;100.00;101483.25;4968683;28;20495;-60
2023/09/05 02:55:44;;;;;;;15.73;9.00;;;;;;;11.07;100.00;101484.25;4970906;28;20053;-62
2023/09/05 02:58:11;;;;;;;16.75;10.63;;;;;;;11.14;100.00;101489.88;4970725;28;20101;-61
2023/09/05 03:00:37;;;;;;;9.35;5.28;;;;;;;11.07;100.00;101494.97;4970230;28;20066;-61
2023/09/05 03:03:04;;;;;;;6.90;4.90;;;;;;;10.96;100.00;101474.50;4970011;28;20490;-61
2023/09/05 03:05:31;;;;;;;8.90;4.75;;;;;;;10.97;100.00;101468.16;4970409;28;20058;-61
2023/09/05 03:07:57;;;;;;;7.35;4.45;;;;;;;10.96;100.00;101470.97;4970221;28;20046;-61
2023/09/05 03:10:24;;;;;;;9.07;4.88;;;;;;;10.94;100.00;101471.13;4970080;28;20097;-61
2023/09/05 03:12:50;;;;;;;5.93;4.35;;;;;;;11.04;100.00;101479.16;4973735;28;20101;-61
2023/09/05 03:15:20;;;;;;;12.27;4.97;;;;;;;11.11;100.00;101479.44;4974207;28;20047;-62
2023/09/05 03:17:48;;;;;;;8.20;4.40;;;;;;;11.22;100.00;101495.38;4974781;28;20459;-63
2023/09/05 03:20:16;;;;;;;8.70;4.65;;;;;;;11.15;100.00;101496.94;4974788;28;20050;-62
2023/09/05 03:22:43;;;;;;;8.80;4.47;;;;;;;11.02;100.00;101472.22;4973727;28;20050;-61
2023/09/05 03:25:10;;;;;;;7.00;4.93;;;;;;;11.20;100.00;101494.66;4973510;28;20426;-62
2023/09/05 03:27:36;;;;;;;5.78;4.47;;;;;;;10.97;100.00;101470.84;4956342;28;20074;-62
2023/09/05 03:30:03;;;;;;;7.13;4.55;;;;;;;10.62;100.00;101414.25;4973974;28;20462;-62
2023/09/05 03:32:30;;;;;;;7.15;4.53;;;;;;;10.76;100.00;101426.38;4973768;28;20050;-62
2023/09/05 03:34:56;;;;;;;9.95;4.60;;;;;;;10.70;100.00;101420.59;4974322;28;20055;-59
2023/09/05 03:37:23;;;;;;;6.90;4.80;;;;;;;10.73;100.00;101438.25;4975097;28;20491;-60
2023/09/05 03:39:49;;;;;;;9.65;4.85;;;;;;;10.37;100.00;101389.66;4974262;28;20050;-61
2023/09/05 03:42:16;;;;;;;10.88;4.63;;;;;;;10.48;100.00;101397.56;4974489;28;20085;-60
2023/09/05 03:44:43;;;;;;;5.93;4.22;;;;;;;10.12;100.00;101358.06;4974353;28;20117;-60
2023/09/05 03:47:09;;;;;;;8.55;5.18;;;;;;;9.37;100.00;101249.72;4971889;28;20407;-60
2023/09/05 03:49:36;;;;;;;8.15;4.70;;;;;;;9.44;100.00;101238.34;4954822;28;20408;-61
2023/09/05 03:52:03;;;;;;;5.57;4.38;;;;;;;9.43;100.00;101244.66;4954659;28;20102;-61
2023/09/05 03:54:29;;;;;;;6.95;4.47;;;;;;;9.34;100.00;101242.84;4954861;28;20134;-59
2023/09/05 03:56:56;;;;;;;10.32;5.05;;;;;;;8.85;100.00;101172.31;4954638;28;20051;-59
2023/09/05 03:59:22;;;;;;;6.47;4.95;;;;;;;9.00;100.00;101200.34;4954197;28;20455;-60
2023/09/05 04:01:49;;;;;;;9.07;4.95;;;;;;;9.05;100.00;101200.75;4954451;28;20070;-59
2023/09/05 04:04:16;;;;;;;6.15;4.60;;;;;;;8.93;100.00;101196.53;4955796;28;20059;-59
2023/09/05 04:06:42;;;;;;;12.10;4.68;;;;;;;8.79;100.00;101168.34;4973527;28;20526;-59
2023/09/05 04:09:09;;;;;;;6.70;4.93;;;;;;;8.87;100.00;101188.22;4972904;28;20055;-59
2023/09/05 04:11:35;;;;;;;10.35;5.55;;;;;;;8.74;100.00;101173.25;4973703;28;20051;-59
2023/09/05 04:14:03;;;;;;;7.53;4.68;;;;;;;8.76;100.00;101191.84;4972768;28;20105;-60
2023/09/05 04:16:29;;;;;;;9.07;6.03;;;;;;;7.99;100.00;101082.84;4973308;28;20071;-60
2023/09/05 04:18:57;;;;;;;7.57;5.20;;;;;;;8.42;100.00;101144.03;4973162;28;20046;-59
2023/09/05 04:21:23;;;;;;;10.15;5.35;;;;;;;8.06;100.00;101090.16;4973439;28;20153;-61
2023/09/05 04:23:50;;;;;;;9.70;5.53;;;;;;;8.41;100.00;101142.34;4972155;28;20077;-60
2023/09/05 04:26:16;;;;;;;7.97;5.45;;;;;;;8.50;100.00;101154.88;4974477;28;20105;-60
2023/09/05 04:28:43;;;;;;;9.10;5.10;;;;;;;8.85;100.00;101196.38;4973564;28;20464;-61
2023/09/05 04:31:10;;;;;;;14.20;5.20;;;;;;;8.76;100.00;101199.88;4972891;28;20455;-60
2023/09/05 04:33:40;;;;;;;6.78;5.40;;;;;;;8.72;100.00;101191.28;4972487;28;20415;-59
2023/09/05 04:36:08;;;;;;;10.60;4.78;;;;;;;8.78;100.00;101197.88;4973269;28;20046;-60
2023/09/05 04:38:35;;;;;;;6.97;4.88;;;;;;;8.79;100.00;101200.44;4972930;28;20054;-60
2023/09/05 04:41:02;;;;;;;17.38;10.52;;;;;;;8.80;100.00;101194.09;4972625;28;20454;-59
2023/09/05 04:43:30;;;;;;;22.42;12.38;;;;;;;8.80;100.00;101196.78;4972544;28;20467;-61
2023/09/05 04:45:57;;;;;;;11.43;6.35;;;;;;;8.99;100.00;101228.09;4972807;28;20066;-60
2023/09/05 04:48:23;;;;;;;8.55;5.55;;;;;;;9.33;100.00;101265.22;4972371;28;20050;-58
2023/09/05 04:50:52;;;;;;;9.05;5.38;;;;;;;9.11;100.00;101268.13;4972669;28;20450;-59
2023/09/05 04:53:19;;;;;;;7.18;4.80;;;;;;;8.32;100.00;101156.50;4967907;28;20055;-67
2023/09/05 04:55:48;;;;;;;9.80;6.95;;;;;;;8.24;100.00;101132.28;4953236;28;20124;-69
2023/09/05 04:58:14;;;;;;;11.35;5.22;;;;;;;8.41;100.00;101162.88;4953507;28;20058;-70
2023/09/05 05:00:41;;;;;;;11.35;5.63;;;;;;;8.34;100.00;101166.09;4953701;28;20118;-67
2023/09/05 05:03:08;;;;;;;9.98;5.68;;;;;;;8.56;100.00;101174.88;4951966;28;20147;-68
2023/09/05 05:05:35;;;;;;;11.38;5.03;;;;;;;8.56;100.00;101186.44;4952295;28;20055;-68
2023/09/05 05:08:02;;;;;;;13.07;5.47;;;;;;;8.95;100.00;101240.03;4953479;28;20467;-68
2023/09/05 05:10:30;;;;;;;12.30;5.40;;;;;;;8.85;100.00;101221.31;4953124;28;20055;-67
2023/09/05 05:12:56;;;;;;;16.52;5.65;;;;;;;8.29;100.00;101149.59;4952933;28;20047;-68
2023/09/05 05:15:23;;;;;;;9.18;5.05;;;;;;;8.40;100.00;101164.72;4952738;28;20494;-65
2023/09/05 05:17:49;;;;;;;11.90;6.05;;;;;;;8.74;100.00;101193.81;4952945;28;20470;-65
2023/09/05 05:20:18;;;;;;;11.70;5.45;;;;;;;8.76;100.00;101223.94;4953656;28;20122;-70
2023/09/05 05:22:44;;;;;;;11.93;5.10;;;;;;;7.95;100.00;101092.94;4952941;28;20069;-66
2023/09/05 05:25:11;;;;;;;9.18;5.50;;;;;;;8.34;100.00;101147.38;4952264;28;20459;-66
2023/09/05 05:27:37;;;;;;;11.77;6.07;;;;;;;8.33;100.00;101136.81;4952335;28;25553;-67
2023/09/05 05:30:05;;;;;;;13.02;6.18;;;;;;;8.19;100.00;101119.31;4953177;28;20521;-67
2023/09/05 05:32:32;;;;;;;11.05;5.10;;;;;;;8.24;100.00;101124.28;4952945;28;20062;-68
2023/09/05 05:34:58;;;;;;;13.57;5.90;;;;;;;8.25;100.00;101128.63;4951986;28;20043;-66
2023/09/05 05:37:28;;;;;;;12.50;6.13;;;;;;;8.45;100.00;101149.09;4936870;28;20058;-68
2023/09/05 05:39:55;;;;;;;16.38;5.85;;;;;;;8.57;100.00;101161.41;4953202;28;20055;-66
2023/09/05 05:42:21;;;;;;;14.52;5.97;;;;;;;8.55;100.00;101152.66;4953220;28;20080;-68
2023/09/05 05:44:49;;;;;;;14.23;5.30;;;;;;;9.11;100.00;101217.28;4953093;28;20051;-66
2023/09/05 05:47:17;;;;;;;8.15;5.60;;;;;;;9.04;100.00;101212.47;4953645;28;20492;-67
2023/09/05 05:49:44;;;;;;;11.13;5.32;;;;;;;9.27;100.00;101239.03;4953832;28;20051;-67
2023/09/05 05:52:10;;;;;;;7.55;5.10;;;;;;;9.82;100.00;101318.84;4953478;28;20047;-61
2023/09/05 05:54:37;;;;;;;8.40;4.45;;;;;;;10.36;100.00;101385.28;4953151;28;20055;-66
2023/09/05 05:57:05;;;;;;;14.13;5.63;;;;;;;11.00;100.00;101467.00;4952938;28;20051;-66
2023/09/05 05:59:31;;;;;;;10.43;4.97;;;;;;;11.26;100.00;101499.44;4952585;28;20106;-66
2023/09/05 06:01:59;;;;;;;7.57;4.25;;;;;;;11.50;100.00;101530.34;4952101;28;20047;-66
2023/09/05 06:04:25;;;;;;;7.60;4.68;;;;;;;11.55;100.00;101550.41;4952581;28;20565;-68
2023/09/05 06:06:52;;;;;;;12.40;5.07;;;;;;;11.95;100.00;101580.72;4952291;28;20047;-65
2023/09/05 06:09:21;;;;;;;8.93;4.35;;;;;;;12.35;100.00;101637.72;4952557;28;20101;-65
2023/09/05 06:11:47;;;;;;;17.45;5.20;;;;;;;12.51;100.00;101653.19;4952999;28;20056;-68
2023/09/05 06:14:15;;;;;;;6.00;3.42;;;;;;;12.75;100.00;101670.66;4952537;28;20050;-67
2023/09/05 06:16:45;;;;;;;9.45;4.53;;;;;;;13.01;100.00;101692.34;4952729;28;20047;-68
2023/09/05 06:19:12;;;;;;;6.95;3.92;;;;;;;13.18;100.00;101713.06;4952195;28;20051;-67
2023/09/05 06:21:40;;;;;;;9.15;4.03;;;;;;;13.49;100.00;101732.38;4951996;28;20439;-66
2023/09/05 06:24:07;;;;;;;13.15;4.25;;;;;;;13.77;100.00;101754.72;4952047;28;20061;-69
2023/09/05 06:26:33;;;;;;;8.10;3.97;;;;;;;14.01;100.00;101772.09;4951872;28;20137;-68
2023/09/05 06:29:00;;;;;;;7.68;3.38;;;;;;;14.29;100.00;101772.81;4952465;28;20047;-67
2023/09/05 06:31:28;;;;;;;6.30;3.40;;;;;;;14.45;100.00;101794.50;4951703;28;20047;-68
2023/09/05 06:33:54;;;;;;;6.30;3.67;;;;;;;14.57;100.00;101799.63;4952414;28;20051;-70
2023/09/05 06:36:21;;;;;;;5.72;3.30;;;;;;;14.84;100.00;101812.09;4953002;28;20039;-69
2023/09/05 06:38:47;;;;;;;10.80;3.58;;;;;;;14.99;100.00;101807.81;4953060;28;20102;-67
2023/09/05 06:41:15;;;;;;;6.90;3.58;;;;;;;15.16;100.00;101812.25;4952994;28;20043;-67
2023/09/05 06:43:44;;;;;;;6.43;3.30;;;;;;;15.15;100.00;101813.25;4952719;28;20418;-72
2023/09/05 06:46:11;;;;;;;6.15;3.22;;;;;;;15.25;100.00;101816.66;4952253;28;20126;-67
2023/09/05 06:48:38;;;;;;;13.57;3.63;;;;;;;15.31;100.00;101825.13;4952039;28;20400;-66
2023/09/05 06:51:05;;;;;;;8.27;3.38;;;;;;;15.64;100.00;101821.53;4952045;28;20054;-68
2023/09/05 06:53:33;;;;;;;4.75;3.10;;;;;;;15.80;100.00;101823.38;4952200;28;20051;-60
2023/09/05 06:55:59;;;;;;;11.05;2.85;;;;;;;15.77;100.00;101823.72;4952595;28;20105;-59
2023/09/05 06:58:26;;;;;;;6.30;2.55;;;;;;;15.75;100.00;101816.81;4952053;28;20061;-59
2023/09/05 07:00:54;;;;;;;3.45;2.80;;;;;;;16.03;100.00;101820.03;4952172;28;20074;-60
2023/09/05 07:03:25;;;;;;;8.75;3.67;;;;;;;16.50;100.00;101822.84;4951974;28;20051;-61
2023/09/05 07:05:53;;;;;;;8.97;2.90;;;;;;;16.89;100.00;101824.81;4960923;28;20106;-59
2023/09/05 07:08:23;;;;;;;7.90;3.00;;;;;;;17.33;100.00;101821.53;4971553;28;20129;-58
2023/09/05 07:10:50;;;;;;;5.38;3.00;;;;;;;17.73;100.00;101823.19;4971156;28;20286;-59
2023/09/05 07:13:16;;;;;;;12.13;3.30;;;;;;;18.17;100.00;101824.34;4971963;28;20042;-59
2023/09/05 07:15:43;;;;;;;4.93;2.35;;;;;;;18.41;100.00;101829.59;4971258;28;20043;-59
2023/09/05 07:18:12;;;;;;;8.73;3.08;;;;;;;18.63;100.00;101837.84;4962990;28;20102;-59
2023/09/05 07:20:39;;;;;;;8.07;2.90;;;;;;;18.20;100.00;101832.16;4952549;28;20063;-66
2023/09/05 07:23:06;;;;;;;4.88;2.58;;;;;;;18.93;100.00;101839.56;4952361;28;20131;-69
2023/09/05 07:25:37;;;;;;;5.47;2.75;;;;;;;19.46;100.00;101844.81;4951726;28;20078;-66
2023/09/05 07:28:04;;;;;;;5.28;2.55;;;;;;;19.79;100.00;101839.75;4951763;28;20455;-66
2023/09/05 07:30:32;;;;;;;4.55;2.60;;;;;;;19.46;100.00;101840.22;4952407;28;20134;-66
2023/09/05 07:32:59;;;;;;;6.43;2.50;;;;;;;19.53;100.00;101839.47;4951282;28;20110;-66
2023/09/05 07:35:25;;;;;;;4.05;2.15;;;;;;;19.99;100.00;101829.03;4954513;28;20383;-66
2023/09/05 07:37:52;;;;;;;8.50;2.80;;;;;;;20.14;97.92;101837.13;4971271;28;20055;-66
2023/09/05 07:40:19;;;;;;;7.78;2.55;;;;;;;20.09;97.00;101839.63;4971429;28;20046;-65
2023/09/05 07:42:45;;;;;;;12.10;3.90;;;;;;;20.14;93.33;101845.31;4971878;28;20383;-72
2023/09/05 07:45:13;;;;;;;7.22;2.85;;;;;;;20.90;84.38;101846.31;4971674;28;20505;-67
2023/09/05 07:47:40;;;;;;;6.70;2.92;;;;;;;21.33;79.40;101848.00;4970970;28;20513;-68
2023/09/05 07:50:06;;;;;;;12.25;3.55;;;;;;;22.03;76.18;101845.84;4971424;28;20055;-67
2023/09/05 07:52:34;;;;;;;9.13;2.80;;;;;;;21.54;76.87;101847.00;4971324;28;20082;-65
2023/09/05 07:55:00;;;;;;;5.82;2.50;;;;;;;21.56;76.38;101851.22;4969754;28;20466;-67
2023/09/05 07:57:27;;;;;;;9.20;3.00;;;;;;;21.50;75.85;101843.00;4970328;28;20125;-70
2023/09/05 07:59:54;;;;;;;5.80;2.83;;;;;;;21.81;73.50;101843.31;4974276;28;20053;-64
2023/09/05 08:02:20;;;;;;;8.85;2.60;;;;;;;22.22;72.70;101844.16;4974742;28;20102;-67
2023/09/05 08:04:47;;;;;;;6.45;2.70;;;;;;;22.03;72.59;101838.50;4973778;28;20102;-66
2023/09/05 08:07:13;;;;;;;5.03;2.47;;;;;;;21.01;77.39;101833.13;4973632;28;20051;-67
2023/09/05 08:09:40;;;;;;;5.82;2.60;;;;;;;21.17;77.56;101826.50;4972460;28;20055;-67
2023/09/05 08:12:06;;;;;;;4.88;2.13;;;;;;;22.01;72.50;101826.06;4973137;28;20047;-67
2023/09/05 08:14:33;;;;;;;5.78;2.75;;;;;;;21.90;72.95;101826.72;4973411;28;20133;-66
2023/09/05 08:16:59;;;;;;;3.63;2.50;;;;;;;22.51;70.73;101818.31;4972507;28;20121;-67
2023/09/05 08:19:27;;;;;;;5.72;2.40;;;;;;;22.05;70.75;101825.47;4972844;28;20046;-69
2023/09/05 08:21:54;;;;;;;4.30;2.55;;;;;;;21.69;71.26;101819.50;4973157;28;20046;-64
2023/09/05 08:24:20;;;;;;;9.35;2.72;;;;;;;22.68;68.01;101825.00;4973384;28;20054;-66
2023/09/05 08:26:47;;;;;;;5.20;3.10;;;;;;;23.83;63.51;101827.88;4973857;28;20495;-66
2023/09/05 08:29:14;;;;;;;5.78;2.70;;;;;;;23.39;62.50;101821.38;4973079;28;20105;-67
2023/09/05 08:31:41;;;;;;;5.43;2.58;;;;;;;23.68;60.40;101830.06;4972868;28;20102;-66
2023/09/05 08:34:08;;;;;;;5.25;2.30;;;;;;;24.00;58.78;101825.41;4973009;28;20050;-67
2023/09/05 08:36:34;;;;;;;4.55;2.47;;;;;;;24.62;57.84;101826.34;4972415;28;20502;-66
2023/09/05 08:39:01;;;;;;;5.95;2.63;;;;;;;24.82;55.73;101825.25;4972602;28;20047;-65
2023/09/05 08:41:29;;;;;;;9.48;2.40;;;;;;;25.19;53.39;101819.78;4972617;28;20136;-67
2023/09/05 08:43:57;;;;;;;5.57;2.25;;;;;;;24.99;52.46;101811.75;4972915;28;20560;-66
2023/09/05 08:46:26;;;;;;;4.30;2.47;;;;;;;25.24;53.14;101818.03;4972802;28;20130;-66
2023/09/05 08:48:52;;;;;;;4.53;2.45;;;;;;;24.35;53.45;101814.75;4972521;28;20117;-66
2023/09/05 08:51:29;;;;;;;4.45;2.10;;;;;;;24.17;55.28;101806.50;4973006;28;20098;-65
2023/09/05 08:53:59;;;;;;;4.95;2.13;;;;;;;24.94;52.92;101803.38;4972732;28;20190;-67
2023/09/05 08:56:26;;;;;;;4.78;2.50;;;;;;;24.56;50.79;101804.47;4972713;28;20468;-65
2023/09/05 08:58:55;;;;;;;3.40;2.30;;;;;;;24.66;52.49;101807.50;4972323;28;20053;-66
2023/09/05 09:01:24;;;;;;;4.88;2.28;;;;;;;25.93;48.95;101806.66;4971979;28;20051;-65
2023/09/05 09:03:54;;;;;;;6.43;1.95;;;;;;;26.73;46.69;101797.81;4972657;28;20417;-65
2023/09/05 09:06:24;;;;;;;2.63;2.03;;;;;;;26.26;45.49;101804.19;4932649;28;1139033;-66
2023/09/05 09:08:51;;;;;;;4.38;2.00;;;;;;;25.34;47.02;101801.81;4971350;28;20545;-67
2023/09/05 09:11:22;;;;;;;5.65;2.28;;;;;;;25.97;45.47;101799.63;4972702;28;20059;-66
2023/09/05 09:13:50;;;;;;;5.50;2.28;;;;;;;26.15;44.69;101798.66;4961700;28;20075;-65
2023/09/05 09:16:18;;;;;;;7.03;2.00;;;;;;;25.72;44.99;101799.78;4961817;28;20042;-66
2023/09/05 09:18:48;;;;;;;5.68;1.85;;;;;;;25.31;46.06;101793.22;4973826;28;20097;-67
2023/09/05 09:21:18;;;;;;;4.38;1.88;;;;;;;26.90;44.16;101790.50;4955377;28;20047;-65
2023/09/05 09:23:49;;;;;;;3.40;1.80;;;;;;;27.23;42.39;101797.19;4953797;28;20139;-66
2023/09/05 09:26:16;;;;;;;4.88;1.90;;;;;;;27.13;41.89;101792.31;4954782;28;20400;-65
2023/09/05 09:28:43;;;;;;;6.55;2.40;;;;;;;26.89;42.42;101796.25;4953957;28;20050;-66
2023/09/05 09:31:12;;;;;;;3.38;1.55;;;;;;;27.93;41.24;101784.97;4935786;28;20074;-66
2023/09/05 09:33:40;;;;;;;6.07;3.90;;;;;;;29.12;39.19;101776.16;4953688;28;20138;-66
2023/09/05 09:36:09;;;;;;;4.15;1.67;;;;;;;28.69;39.22;101777.00;4953552;28;20047;-66
2023/09/05 09:38:38;;;;;;;7.88;2.80;;;;;;;29.80;38.14;101776.53;4953158;28;20051;-62
2023/09/05 09:41:06;;;;;;;6.20;3.35;;;;;;;29.70;37.20;101775.63;4953882;28;20050;-62
2023/09/05 09:43:35;;;;;;;2.95;1.80;;;;;;;29.24;36.76;101775.16;4953676;28;20047;-61
2023/09/05 09:46:08;;;;;;;3.20;1.67;;;;;;;28.41;38.24;101765.03;4953490;28;20051;-61
2023/09/05 09:48:36;;;;;;;2.65;1.70;;;;;;;28.63;37.96;101762.31;4953465;28;20058;-62
2023/09/05 09:51:06;;;;;;;2.72;1.70;;;;;;;27.65;40.31;101756.38;4953495;28;20047;-60
2023/09/05 09:53:39;;;;;;;4.15;1.80;;;;;;;29.24;38.09;101767.72;4952700;28;20400;-62
2023/09/05 09:56:11;;;;;;;1.75;1.50;;;;;;;29.35;36.43;101757.59;4953158;28;20051;-62
2023/09/05 09:58:44;;;;;;;4.47;2.00;;;;;;;28.78;37.77;101752.53;4952914;28;20138;-62
2023/09/05 10:01:12;;;;;;;3.35;1.70;;;;;;;28.51;38.38;101761.59;4953192;28;20443;-61
2023/09/05 10:03:44;;;;;;;2.30;1.50;;;;;;;29.06;37.34;101752.34;4953158;28;20451;-62
2023/09/05 10:06:11;;;;;;;3.20;1.40;;;;;;;27.25;39.98;101750.97;4953005;28;20113;-61
2023/09/05 10:08:38;;;;;;;2.38;1.42;;;;;;;26.59;41.46;101741.34;4952827;28;20059;-62
2023/09/05 10:11:14;;;;;;;2.08;1.55;;;;;;;27.02;40.78;101744.47;4953383;28;20524;-60
2023/09/05 10:13:42;;;;;;;3.78;1.52;;;;;;;28.16;39.07;101745.34;4952546;28;20455;-61
2023/09/05 10:16:09;;;;;;;3.38;1.65;;;;;;;27.56;39.27;101740.53;4953561;28;20054;-61
2023/09/05 10:18:40;;;;;;;3.72;1.60;;;;;;;28.11;38.63;101742.50;4953066;28;20061;-61
2023/09/05 10:21:08;;;;;;;1.83;1.57;;;;;;;28.45;38.82;101737.75;4953004;28;20051;-61
2023/09/05 10:23:37;;;;;;;6.45;1.80;;;;;;;28.38;39.02;101746.19;4953209;28;20047;-62
2023/09/05 10:26:04;;;;;;;7.82;2.05;;;;;;;29.26;37.73;101729.59;4952977;28;20047;-64
2023/09/05 10:28:32;;;;;;;4.45;1.73;;;;;;;28.99;38.04;101729.59;4953385;28;20051;-63
2023/09/05 10:31:12;;;;;;;2.92;1.75;;;;;;;29.68;36.85;101728.06;4952771;28;20130;-62
2023/09/05 10:33:45;;;;;;;2.17;1.75;;;;;;;28.89;38.25;101726.69;4952779;28;20059;-58
2023/09/05 10:36:46;;;;;;;3.42;1.40;;;;;;;28.71;37.25;101725.13;4952745;28;20043;-60
2023/09/05 10:39:33;;;;;;;1.92;1.30;;;;;;;28.12;37.92;101717.44;4936163;28;20146;-67
2023/09/05 10:42:00;;;;;;;5.22;1.70;;;;;;;28.55;38.05;101709.44;4971244;28;20043;-67
2023/09/05 10:44:29;;;;;;;2.63;1.55;;;;;;;28.41;37.71;101709.84;4954631;28;20127;-67
2023/09/05 10:47:29;;;;;;;7.53;1.80;;;;;;;27.46;39.87;101692.41;4971341;28;20051;-67
2023/09/05 10:50:02;;;;;;;4.25;1.70;;;;;;;27.90;39.76;101702.75;4970925;28;20442;-66
2023/09/05 10:52:29;;;;;;;4.78;1.58;;;;;;;27.81;39.67;101702.31;4971247;28;20059;-68
2023/09/05 10:54:58;;;;;;;4.50;1.35;;;;;;;26.74;41.36;101711.41;4971548;28;20105;-67
2023/09/05 10:57:41;;;;;;;3.65;1.77;;;;;;;26.94;42.06;101711.00;4970576;28;20105;-59
2023/09/05 11:00:20;;;;;;;5.30;1.80;;;;;;;26.65;43.02;101701.84;4971068;28;20043;-60
2023/09/05 11:02:48;;;;;;;5.28;1.38;;;;;;;26.19;43.45;101709.13;4971847;28;20113;-59
2023/09/05 11:05:18;;;;;;;5.65;2.13;;;;;;;26.09;44.79;101694.03;4971537;28;20053;-61
2023/09/05 11:07:50;;;;;;;6.45;1.65;;;;;;;26.47;43.76;101691.84;4972009;28;20070;-60
2023/09/05 11:10:27;;;;;;;2.97;1.60;;;;;;;25.97;44.65;101695.16;4972055;28;20126;-60
2023/09/05 11:12:53;;;;;;;5.07;1.55;;;;;;;25.46;45.45;101700.22;4954396;28;20105;-60
2023/09/05 11:15:30;;;;;;;4.05;1.60;;;;;;;25.64;45.68;101688.31;4971781;28;20043;-60
2023/09/05 11:18:01;;;;;;;5.38;1.60;;;;;;;25.48;47.45;101692.56;4971719;28;20173;-60
2023/09/05 11:20:39;;;;;;;4.45;1.73;;;;;;;25.67;46.51;101681.50;4972062;28;20053;-60
2023/09/05 11:23:20;;;;;;;5.78;1.60;;;;;;;25.64;45.81;101684.72;4971514;28;20050;-60